createdAt,value
2016-09-16T00:00:36.361Z,21.34
2016-09-16T00:01:47.363Z,21.27
2016-09-16T00:02:58.368Z,21.33
2016-09-16T00:04:09.571Z,21.21
2016-09-16T00:05:20.579Z,21.21
2016-09-16T00:06:31.781Z,21.23
2016-09-16T00:07:42.786Z,21.21
2016-09-16T00:08:53.987Z,21.28
2016-09-16T00:10:04.992Z,21.28
2016-09-16T00:11:16.049Z,21.15
2016-09-16T00:12:27.061Z,21.22
2016-09-16T00:13:38.264Z,21.21
2016-09-16T00:14:49.282Z,21.13
2016-09-16T00:16:00.267Z,21.18
2016-09-16T00:17:11.345Z,21.19
2016-09-16T00:18:22.346Z,21.15
2016-09-16T00:19:33.592Z,21.11
2016-09-16T00:20:44.593Z,21.06
2016-09-16T00:21:55.596Z,21
2016-09-16T00:23:06.609Z,21.04
2016-09-16T00:24:17.625Z,21.08
2016-09-16T00:25:28.632Z,21.04
2016-09-16T00:26:39.636Z,21.06
2016-09-16T00:27:50.639Z,20.98
2016-09-16T00:29:01.846Z,21.09
2016-09-16T00:30:12.862Z,21.09
2016-09-16T00:31:23.872Z,20.98
2016-09-16T00:32:34.869Z,21.04
2016-09-16T00:33:46.079Z,20.97
2016-09-16T00:34:57.092Z,20.93
2016-09-16T00:36:08.105Z,20.98
2016-09-16T00:37:19.110Z,20.93
2016-09-16T00:38:30.110Z,20.93
2016-09-16T00:39:41.117Z,20.98
2016-09-16T00:40:52.128Z,20.98
2016-09-16T00:42:03.130Z,20.91
2016-09-16T00:43:14.137Z,20.93
2016-09-16T00:44:25.162Z,20.9
2016-09-16T00:45:36.173Z,20.94
2016-09-16T00:46:47.580Z,20.94
2016-09-16T00:47:58.585Z,20.9
2016-09-16T00:49:09.580Z,20.86
2016-09-16T00:50:20.587Z,20.88
2016-09-16T00:51:31.594Z,20.83
2016-09-16T00:52:42.607Z,20.85
2016-09-16T00:53:53.609Z,20.82
2016-09-16T00:55:05.017Z,20.81
2016-09-16T00:56:16.025Z,20.78
2016-09-16T00:57:27.032Z,20.76
2016-09-16T00:58:38.031Z,20.72
2016-09-16T00:59:49.059Z,20.68
2016-09-16T01:01:00.086Z,20.64
2016-09-16T01:02:11.087Z,20.74
2016-09-16T01:03:22.090Z,20.71
2016-09-16T01:04:33.094Z,20.67
2016-09-16T01:05:44.097Z,20.66
2016-09-16T01:06:55.094Z,20.71
2016-09-16T01:08:06.301Z,20.64
2016-09-16T01:09:17.308Z,20.63
2016-09-16T01:10:28.314Z,20.63
2016-09-16T01:11:39.361Z,20.71
2016-09-16T01:12:50.572Z,20.58
2016-09-16T01:14:01.579Z,20.42
2016-09-16T01:15:12.576Z,20.42
2016-09-16T01:16:23.788Z,20.44
2016-09-16T01:17:34.801Z,20.49
2016-09-16T01:18:45.815Z,20.44
2016-09-16T01:19:56.812Z,20.42
2016-09-16T01:21:08.020Z,20.41
2016-09-16T01:22:19.024Z,20.46
2016-09-16T01:23:30.045Z,20.3
2016-09-16T01:24:41.043Z,20.29
2016-09-16T01:25:52.254Z,20.35
2016-09-16T01:27:03.260Z,20.26
2016-09-16T01:28:14.272Z,20.3
2016-09-16T01:29:25.272Z,20.27
2016-09-16T01:30:36.274Z,20.25
2016-09-16T01:31:47.486Z,20.22
2016-09-16T01:32:58.494Z,20.25
2016-09-16T01:34:09.511Z,20.18
2016-09-16T01:35:20.521Z,20.1
2016-09-16T01:36:31.533Z,20.07
2016-09-16T01:37:42.541Z,20.07
2016-09-16T01:38:53.540Z,20.1
2016-09-16T01:40:04.547Z,20.01
2016-09-16T01:41:15.560Z,20.04
2016-09-16T01:42:26.558Z,20
2016-09-16T01:43:37.552Z,19.93
2016-09-16T01:44:48.557Z,19.93
2016-09-16T01:45:59.566Z,19.9
2016-09-16T01:47:10.575Z,19.97
2016-09-16T01:48:21.576Z,19.9
2016-09-16T01:49:32.586Z,19.85
2016-09-16T01:50:43.604Z,19.83
2016-09-16T01:51:54.617Z,19.8
2016-09-16T01:53:05.622Z,19.87
2016-09-16T01:54:16.628Z,19.82
2016-09-16T01:55:27.837Z,19.82
2016-09-16T01:56:38.845Z,19.82
2016-09-16T01:57:49.852Z,19.79
2016-09-16T01:59:00.863Z,19.71
2016-09-16T02:00:11.877Z,19.64
2016-09-16T02:01:22.887Z,19.78
2016-09-16T02:02:34.084Z,19.64
2016-09-16T02:03:45.297Z,19.65
2016-09-16T02:04:56.306Z,19.63
2016-09-16T02:06:07.311Z,19.65
2016-09-16T02:07:18.327Z,19.79
2016-09-16T02:08:29.537Z,19.72
2016-09-16T02:09:40.739Z,19.65
2016-09-16T02:10:51.748Z,19.67
2016-09-16T02:12:02.803Z,19.6
2016-09-16T02:13:13.813Z,19.56
2016-09-16T02:14:24.817Z,19.67
2016-09-16T02:15:35.822Z,19.6
2016-09-16T02:16:46.815Z,19.57
2016-09-16T02:17:57.818Z,19.47
2016-09-16T02:19:08.815Z,19.46
2016-09-16T02:20:19.822Z,19.42
2016-09-16T02:21:30.830Z,19.3
2016-09-16T02:22:41.828Z,19.2
2016-09-16T02:23:52.837Z,19.24
2016-09-16T02:25:03.844Z,19.1
2016-09-16T02:26:14.853Z,19.07
2016-09-16T02:27:25.857Z,18.99
2016-09-16T02:28:36.887Z,18.99
2016-09-16T02:29:47.894Z,18.9
2016-09-16T02:30:58.901Z,18.89
2016-09-16T02:32:09.904Z,18.9
2016-09-16T02:33:20.906Z,18.94
2016-09-16T02:34:31.943Z,18.81
2016-09-16T02:35:42.941Z,18.89
2016-09-16T02:36:53.935Z,18.89
2016-09-16T02:38:04.938Z,18.79
2016-09-16T02:39:15.939Z,18.87
2016-09-16T02:40:26.939Z,18.87
2016-09-16T02:41:37.936Z,18.87
2016-09-16T02:42:49.137Z,18.86
2016-09-16T02:44:00.141Z,18.82
2016-09-16T02:45:11.142Z,18.82
2016-09-16T02:46:22.145Z,18.74
2016-09-16T02:47:33.148Z,18.65
2016-09-16T02:48:44.163Z,18.57
2016-09-16T02:49:55.179Z,18.49
2016-09-16T02:51:06.182Z,18.5
2016-09-16T02:52:17.199Z,18.49
2016-09-16T02:53:28.201Z,18.54
2016-09-16T02:54:39.213Z,18.53
2016-09-16T02:55:50.218Z,18.53
2016-09-16T02:57:01.223Z,18.39
2016-09-16T02:58:12.433Z,18.53
2016-09-16T02:59:23.426Z,18.53
2016-09-16T03:00:34.422Z,18.41
2016-09-16T03:01:45.429Z,18.44
2016-09-16T03:02:56.442Z,18.53
2016-09-16T03:04:07.438Z,18.47
2016-09-16T03:05:18.453Z,18.39
2016-09-16T03:06:29.474Z,18.31
2016-09-16T03:07:40.479Z,18.24
2016-09-16T03:08:51.468Z,18.21
2016-09-16T03:10:02.472Z,18.2
2016-09-16T03:11:13.477Z,18.11
2016-09-16T03:12:24.681Z,18.1
2016-09-16T03:13:35.683Z,18.13
2016-09-16T03:14:46.687Z,18.14
2016-09-16T03:15:57.689Z,18.06
2016-09-16T03:17:08.698Z,18.05
2016-09-16T03:18:19.905Z,18.05
2016-09-16T03:19:30.898Z,17.95
2016-09-16T03:20:41.917Z,17.94
2016-09-16T03:21:52.926Z,17.9
2016-09-16T03:23:03.936Z,17.9
2016-09-16T03:24:14.938Z,17.84
2016-09-16T03:25:25.966Z,17.92
2016-09-16T03:26:36.966Z,17.88
2016-09-16T03:27:47.956Z,17.79
2016-09-16T03:28:58.971Z,17.77
2016-09-16T03:30:09.975Z,17.8
2016-09-16T03:31:20.968Z,17.76
2016-09-16T03:32:32.166Z,17.71
2016-09-16T03:33:43.370Z,17.69
2016-09-16T03:34:54.579Z,17.74
2016-09-16T03:36:05.574Z,17.73
2016-09-16T03:37:16.597Z,17.71
2016-09-16T03:38:27.604Z,17.76
2016-09-16T03:39:38.616Z,17.71
2016-09-16T03:40:49.826Z,17.69
2016-09-16T03:42:00.827Z,17.68
2016-09-16T03:43:12.036Z,17.73
2016-09-16T03:44:23.247Z,17.65
2016-09-16T03:45:34.256Z,17.69
2016-09-16T03:46:45.261Z,17.52
2016-09-16T03:47:56.286Z,17.5
2016-09-16T03:49:07.293Z,17.57
2016-09-16T03:50:18.495Z,17.57
2016-09-16T03:51:29.505Z,17.58
2016-09-16T03:52:40.712Z,17.5
2016-09-16T03:53:51.721Z,17.52
2016-09-16T03:55:02.744Z,17.54
2016-09-16T03:56:13.746Z,17.58
2016-09-16T03:57:24.957Z,17.55
2016-09-16T03:58:35.973Z,17.6
2016-09-16T03:59:46.987Z,17.57
2016-09-16T04:00:57.992Z,17.55
2016-09-16T04:02:08.992Z,17.63
2016-09-16T04:03:19.992Z,17.6
2016-09-16T04:04:30.998Z,17.6
2016-09-16T04:05:42.003Z,17.6
2016-09-16T04:06:53.012Z,17.49
2016-09-16T04:08:04.012Z,17.47
2016-09-16T04:09:15.013Z,17.43
2016-09-16T04:10:26.036Z,17.45
2016-09-16T04:11:37.055Z,17.38
2016-09-16T04:12:48.057Z,17.32
2016-09-16T04:13:59.056Z,17.36
2016-09-16T04:15:10.086Z,17.38
2016-09-16T04:16:21.093Z,17.28
2016-09-16T04:17:32.097Z,17.35
2016-09-16T04:18:43.094Z,17.31
2016-09-16T04:19:54.096Z,17.3
2016-09-16T04:21:05.103Z,17.3
2016-09-16T04:22:16.120Z,17.35
2016-09-16T04:23:27.171Z,17.31
2016-09-16T04:24:38.381Z,17.27
2016-09-16T04:25:49.584Z,17.31
2016-09-16T04:27:00.586Z,17.31
2016-09-16T04:28:11.581Z,17.24
2016-09-16T04:29:22.786Z,17.2
2016-09-16T04:30:33.789Z,17.27
2016-09-16T04:31:44.799Z,17.25
2016-09-16T04:32:55.808Z,17.25
2016-09-16T04:34:06.828Z,17.21
2016-09-16T04:35:18.039Z,17.21
2016-09-16T04:36:29.040Z,17.22
2016-09-16T04:37:40.053Z,17.24
2016-09-16T04:38:51.059Z,17.17
2016-09-16T04:40:02.060Z,17.17
2016-09-16T04:41:13.067Z,17.1
2016-09-16T04:42:24.072Z,17.13
2016-09-16T04:43:35.077Z,17.09
2016-09-16T04:44:46.083Z,17.09
2016-09-16T04:45:57.095Z,17.09
2016-09-16T04:47:08.092Z,17.07
2016-09-16T04:48:19.098Z,17.09
2016-09-16T04:49:30.096Z,17.06
2016-09-16T04:50:41.094Z,17.09
2016-09-16T04:51:52.100Z,17.1
2016-09-16T04:53:03.088Z,17.15
2016-09-16T04:54:14.104Z,17.12
2016-09-16T04:55:25.113Z,17.06
2016-09-16T04:56:36.114Z,17.1
2016-09-16T04:57:47.103Z,17.02
2016-09-16T04:58:58.327Z,17
2016-09-16T05:00:09.345Z,17.09
2016-09-16T05:01:20.350Z,17.12
2016-09-16T05:02:31.360Z,17.17
2016-09-16T05:03:42.365Z,17.12
2016-09-16T05:04:53.366Z,17.09
2016-09-16T05:06:04.368Z,17.17
2016-09-16T05:07:15.368Z,17.12
2016-09-16T05:08:26.369Z,17.06
2016-09-16T05:09:37.579Z,17.07
2016-09-16T05:10:48.573Z,17.06
2016-09-16T05:11:59.582Z,16.99
2016-09-16T05:13:10.637Z,17.05
2016-09-16T05:14:21.651Z,17.06
2016-09-16T05:15:32.645Z,17.06
2016-09-16T05:16:43.641Z,17.05
2016-09-16T05:17:54.640Z,16.99
2016-09-16T05:19:05.637Z,17
2016-09-16T05:20:16.642Z,17.02
2016-09-16T05:21:27.638Z,16.97
2016-09-16T05:22:38.637Z,17.02
2016-09-16T05:23:49.641Z,17.03
2016-09-16T05:25:00.662Z,17
2016-09-16T05:26:11.660Z,17.05
2016-09-16T05:27:22.665Z,17
2016-09-16T05:28:33.660Z,16.97
2016-09-16T05:29:44.654Z,17.05
2016-09-16T05:30:55.659Z,16.99
2016-09-16T05:32:06.670Z,17.03
2016-09-16T05:33:17.871Z,16.94
2016-09-16T05:34:28.899Z,16.99
2016-09-16T05:35:39.910Z,17
2016-09-16T05:36:50.914Z,17.02
2016-09-16T05:38:02.133Z,17.07
2016-09-16T05:39:13.137Z,17.07
2016-09-16T05:40:24.134Z,17.07
2016-09-16T05:41:35.137Z,17.07
2016-09-16T05:42:46.143Z,17.09
2016-09-16T05:43:57.142Z,17.15
2016-09-16T05:45:08.149Z,17.15
2016-09-16T05:46:19.149Z,17.1
2016-09-16T05:47:30.367Z,17.09
2016-09-16T05:48:41.367Z,17.21
2016-09-16T05:49:52.360Z,17.17
2016-09-16T05:51:03.361Z,17.21
2016-09-16T05:52:14.563Z,17.13
2016-09-16T05:53:25.572Z,17.24
2016-09-16T05:54:36.575Z,17.25
2016-09-16T05:55:47.777Z,17.18
2016-09-16T05:56:59.200Z,17.25
2016-09-16T05:58:10.218Z,17.27
2016-09-16T05:59:21.232Z,17.3
2016-09-16T06:00:32.231Z,17.25
2016-09-16T06:01:43.233Z,17.3
2016-09-16T06:02:54.235Z,17.32
2016-09-16T06:04:05.435Z,17.35
2016-09-16T06:05:16.438Z,17.32
2016-09-16T06:06:27.446Z,17.39
2016-09-16T06:07:38.452Z,17.36
2016-09-16T06:08:49.855Z,17.45
2016-09-16T06:10:00.856Z,17.38
2016-09-16T06:11:12.056Z,17.4
2016-09-16T06:12:23.058Z,17.42
2016-09-16T06:13:34.115Z,17.49
2016-09-16T06:14:45.526Z,17.47
2016-09-16T06:15:56.524Z,17.57
2016-09-16T06:17:07.539Z,17.5
2016-09-16T06:18:18.542Z,17.52
2016-09-16T06:19:29.732Z,17.54
2016-09-16T06:20:40.736Z,17.49
2016-09-16T06:21:51.746Z,17.52
2016-09-16T06:23:02.763Z,17.63
2016-09-16T06:24:13.769Z,17.71
2016-09-16T06:25:24.781Z,17.77
2016-09-16T06:26:35.981Z,17.8
2016-09-16T06:27:46.980Z,17.88
2016-09-16T06:28:57.995Z,17.92
2016-09-16T06:30:08.995Z,17.9
2016-09-16T06:31:20.205Z,18.01
2016-09-16T06:32:31.224Z,18.06
2016-09-16T06:33:42.226Z,18.05
2016-09-16T06:34:53.223Z,18.05
2016-09-16T06:36:04.227Z,18.14
2016-09-16T06:37:15.223Z,18.08
2016-09-16T06:38:26.231Z,18.23
2016-09-16T06:39:37.435Z,18.19
2016-09-16T06:40:48.432Z,18.29
2016-09-16T06:41:59.443Z,18.5
2016-09-16T06:43:10.453Z,18.81
2016-09-16T06:44:21.454Z,18.93
2016-09-16T06:45:32.465Z,19.27
2016-09-16T06:46:43.476Z,19.56
2016-09-16T06:47:54.485Z,19.92
2016-09-16T06:49:05.487Z,19.95
2016-09-16T06:50:16.492Z,19.86
2016-09-16T06:51:27.721Z,20
2016-09-16T06:52:38.917Z,19.98
2016-09-16T06:53:49.913Z,19.9
2016-09-16T06:55:00.916Z,19.87
2016-09-16T06:56:11.925Z,19.79
2016-09-16T06:57:22.927Z,19.78
2016-09-16T06:58:33.940Z,19.78
2016-09-16T06:59:44.950Z,19.7
2016-09-16T07:00:55.969Z,19.68
2016-09-16T07:02:06.974Z,19.63
2016-09-16T07:03:18.196Z,19.56
2016-09-16T07:04:29.406Z,19.67
2016-09-16T07:05:40.404Z,19.71
2016-09-16T07:06:51.413Z,19.5
2016-09-16T07:08:02.423Z,19.61
2016-09-16T07:09:13.630Z,19.55
2016-09-16T07:10:24.651Z,19.56
2016-09-16T07:11:35.667Z,19.56
2016-09-16T07:12:46.688Z,19.52
2016-09-16T07:13:57.697Z,19.55
2016-09-16T07:15:08.899Z,19.47
2016-09-16T07:16:19.902Z,19.43
2016-09-16T07:17:30.906Z,19.43
2016-09-16T07:18:41.921Z,19.4
2016-09-16T07:19:52.944Z,19.46
2016-09-16T07:21:04.143Z,19.42
2016-09-16T07:22:15.138Z,19.42
2016-09-16T07:23:26.347Z,19.42
2016-09-16T07:24:37.354Z,19.4
2016-09-16T07:25:48.363Z,19.47
2016-09-16T07:26:59.371Z,19.4
2016-09-16T07:28:10.582Z,19.37
2016-09-16T07:29:21.592Z,19.4
2016-09-16T07:30:32.604Z,19.4
2016-09-16T07:31:43.610Z,19.49
2016-09-16T07:32:54.621Z,19.5
2016-09-16T07:34:05.629Z,19.52
2016-09-16T07:35:16.641Z,19.68
2016-09-16T07:36:27.644Z,19.83
2016-09-16T07:37:38.646Z,19.95
2016-09-16T07:38:49.664Z,20.01
2016-09-16T07:40:00.668Z,20.16
2016-09-16T07:41:11.673Z,20.25
2016-09-16T07:42:22.681Z,20.41
2016-09-16T07:43:33.683Z,20.71
2016-09-16T07:44:44.699Z,21.04
2016-09-16T07:45:55.702Z,21.43
2016-09-16T07:47:06.709Z,21.62
2016-09-16T07:48:17.725Z,21.7
2016-09-16T07:49:28.743Z,21.7
2016-09-16T07:50:39.753Z,21.74
2016-09-16T07:51:50.962Z,21.96
2016-09-16T07:53:01.967Z,22
2016-09-16T07:54:12.968Z,22.27
2016-09-16T07:55:24.003Z,22.38
2016-09-16T07:56:35.009Z,22.59
2016-09-16T07:57:46.017Z,22.76
2016-09-16T07:58:57.032Z,22.82
2016-09-16T08:00:08.050Z,22.97
2016-09-16T08:01:19.260Z,23.04
2016-09-16T08:02:30.272Z,22.97
2016-09-16T08:03:41.282Z,22.85
2016-09-16T08:04:52.292Z,22.71
2016-09-16T08:06:03.308Z,22.6
2016-09-16T08:07:14.322Z,22.61
2016-09-16T08:08:25.332Z,22.38
2016-09-16T08:09:36.343Z,22.26
2016-09-16T08:10:47.364Z,22.07
2016-09-16T08:11:58.378Z,21.99
2016-09-16T08:13:09.793Z,21.78
2016-09-16T08:14:20.860Z,21.77
2016-09-16T08:15:31.866Z,21.77
2016-09-16T08:16:42.873Z,21.66
2016-09-16T08:17:53.889Z,21.52
2016-09-16T08:19:04.898Z,21.51
2016-09-16T08:20:16.112Z,21.41
2016-09-16T08:21:27.123Z,21.31
2016-09-16T08:22:38.332Z,21.23
2016-09-16T08:23:49.338Z,21.25
2016-09-16T08:25:00.554Z,21.23
2016-09-16T08:26:11.560Z,21.28
2016-09-16T08:27:22.571Z,21.12
2016-09-16T08:28:33.581Z,21.3
2016-09-16T08:29:44.592Z,21.21
2016-09-16T08:30:55.803Z,21.19
2016-09-16T08:32:07.009Z,21.18
2016-09-16T08:33:18.007Z,21.16
2016-09-16T08:34:29.029Z,21.16
2016-09-16T08:35:40.048Z,21.18
2016-09-16T08:36:51.052Z,21.27
2016-09-16T08:38:02.260Z,21.28
2016-09-16T08:39:13.271Z,21.34
2016-09-16T08:40:24.285Z,21.41
2016-09-16T08:41:35.295Z,21.46
2016-09-16T08:42:46.292Z,21.49
2016-09-16T08:43:57.297Z,21.56
2016-09-16T08:45:08.312Z,21.53
2016-09-16T08:46:19.319Z,21.51
2016-09-16T08:47:30.323Z,21.59
2016-09-16T08:48:41.322Z,21.73
2016-09-16T08:49:52.528Z,21.71
2016-09-16T08:51:03.540Z,21.8
2016-09-16T08:52:14.557Z,21.78
2016-09-16T08:53:25.778Z,21.86
2016-09-16T08:54:36.784Z,21.85
2016-09-16T08:55:47.798Z,21.86
2016-09-16T08:56:58.805Z,21.86
2016-09-16T08:58:09.810Z,21.86
2016-09-16T08:59:20.837Z,21.83
2016-09-16T09:00:31.847Z,21.74
2016-09-16T09:01:42.854Z,21.7
2016-09-16T09:02:53.857Z,21.74
2016-09-16T09:04:04.860Z,21.59
2016-09-16T09:05:15.864Z,21.56
2016-09-16T09:06:26.881Z,21.61
2016-09-16T09:07:37.890Z,21.53
2016-09-16T09:08:48.894Z,21.45
2016-09-16T09:10:00.109Z,21.36
2016-09-16T09:11:11.129Z,21.36
2016-09-16T09:12:22.134Z,21.38
2016-09-16T09:13:33.146Z,21.33
2016-09-16T09:14:44.197Z,21.34
2016-09-16T09:15:55.401Z,21.25
2016-09-16T09:17:06.398Z,21.3
2016-09-16T09:18:17.423Z,21.31
2016-09-16T09:19:28.839Z,21.34
2016-09-16T09:20:39.850Z,21.33
2016-09-16T09:21:50.860Z,21.45
2016-09-16T09:23:01.865Z,21.52
2016-09-16T09:24:12.880Z,21.74
2016-09-16T09:25:23.891Z,22.02
2016-09-16T09:26:34.900Z,22.29
2016-09-16T09:27:45.907Z,22.38
2016-09-16T09:28:56.914Z,22.54
2016-09-16T09:30:07.923Z,22.57
2016-09-16T09:31:18.931Z,22.67
2016-09-16T09:32:29.942Z,22.88
2016-09-16T09:33:40.953Z,23.12
2016-09-16T09:34:51.957Z,23.71
2016-09-16T09:36:02.973Z,24.08
2016-09-16T09:37:13.983Z,24.56
2016-09-16T09:38:25.198Z,24.49
2016-09-16T09:39:36.212Z,24.29
2016-09-16T09:40:47.425Z,24.07
2016-09-16T09:41:58.649Z,23.97
2016-09-16T09:43:09.666Z,23.97
2016-09-16T09:44:20.686Z,24
2016-09-16T09:45:31.694Z,24.33
2016-09-16T09:46:42.707Z,24.66
2016-09-16T09:47:53.737Z,25.15
2016-09-16T09:49:04.758Z,25.51
2016-09-16T09:50:15.766Z,25.93
2016-09-16T09:51:26.782Z,26.22
2016-09-16T09:52:37.799Z,26.54
2016-09-16T09:53:48.810Z,26.97
2016-09-16T09:55:00.031Z,27.28
2016-09-16T09:56:11.048Z,27.26
2016-09-16T09:57:22.066Z,27.27
2016-09-16T09:58:33.082Z,27.36
2016-09-16T09:59:44.102Z,27.61
2016-09-16T10:00:55.132Z,27.76
2016-09-16T10:02:06.148Z,28.05
2016-09-16T10:03:17.362Z,28.26
2016-09-16T10:04:28.379Z,28.41
2016-09-16T10:05:39.408Z,28.61
2016-09-16T10:06:50.429Z,28.45
2016-09-16T10:08:01.448Z,28.09
2016-09-16T10:09:12.687Z,27.86
2016-09-16T10:10:23.710Z,27.65
2016-09-16T10:11:34.725Z,27.36
2016-09-16T10:12:45.744Z,27.15
2016-09-16T10:13:56.762Z,27.28
2016-09-16T10:15:07.836Z,27.49
2016-09-16T10:16:18.846Z,27.75
2016-09-16T10:17:30.052Z,27.9
2016-09-16T10:18:41.063Z,28.18
2016-09-16T10:19:52.088Z,28.3
2016-09-16T10:21:03.707Z,28.31
2016-09-16T10:22:14.723Z,28.17
2016-09-16T10:23:25.746Z,27.96
2016-09-16T10:24:36.766Z,27.87
2016-09-16T10:25:48.007Z,27.98
2016-09-16T10:26:59.031Z,28.09
2016-09-16T10:28:10.052Z,28.03
2016-09-16T10:29:21.096Z,28.18
2016-09-16T10:30:32.136Z,28.36
2016-09-16T10:31:43.152Z,28.61
2016-09-16T10:32:54.382Z,28.7
2016-09-16T10:34:05.399Z,28.78
2016-09-16T10:35:16.422Z,28.85
2016-09-16T10:36:27.450Z,28.88
2016-09-16T10:37:38.466Z,28.86
2016-09-16T10:38:49.686Z,28.72
2016-09-16T10:40:00.701Z,29.01
2016-09-16T10:41:11.722Z,29.13
2016-09-16T10:42:23.147Z,29.33
2016-09-16T10:43:34.173Z,29.73
2016-09-16T10:44:45.191Z,29.82
2016-09-16T10:45:56.203Z,29.92
2016-09-16T10:47:07.228Z,29.65
2016-09-16T10:48:18.260Z,29.4
2016-09-16T10:49:29.480Z,29.28
2016-09-16T10:50:40.502Z,29.2
2016-09-16T10:51:51.523Z,29.28
2016-09-16T10:53:02.540Z,29.15
2016-09-16T10:54:13.561Z,29.05
2016-09-16T10:55:24.783Z,28.94
2016-09-16T10:56:35.801Z,28.83
2016-09-16T10:57:46.815Z,28.63
2016-09-16T10:58:57.830Z,28.54
2016-09-16T11:00:09.054Z,28.45
2016-09-16T11:01:20.073Z,28.48
2016-09-16T11:02:31.106Z,28.63
2016-09-16T11:03:42.111Z,28.82
2016-09-16T11:04:53.139Z,28.82
2016-09-16T11:06:04.161Z,28.86
2016-09-16T11:07:15.195Z,28.72
2016-09-16T11:08:26.219Z,28.55
2016-09-16T11:09:37.236Z,28.39
2016-09-16T11:10:48.256Z,28.24
2016-09-16T11:11:59.287Z,28.03
2016-09-16T11:13:10.304Z,27.72
2016-09-16T11:14:21.322Z,27.55
2016-09-16T11:15:32.392Z,27.3
2016-09-16T11:16:43.409Z,27.08
2016-09-16T11:17:54.431Z,26.96
2016-09-16T11:19:05.455Z,26.87
2016-09-16T11:20:16.674Z,26.61
2016-09-16T11:21:27.701Z,26.52
2016-09-16T11:22:38.722Z,26.44
2016-09-16T11:23:49.734Z,26.42
2016-09-16T11:25:00.752Z,26.49
2016-09-16T11:26:11.768Z,26.68
2016-09-16T11:27:22.782Z,26.71
2016-09-16T11:28:33.993Z,26.68
2016-09-16T11:29:45.010Z,26.67
2016-09-16T11:30:56.019Z,26.44
2016-09-16T11:32:07.034Z,26.27
2016-09-16T11:33:18.061Z,26.16
2016-09-16T11:34:29.275Z,26.19
2016-09-16T11:35:40.289Z,26.11
2016-09-16T11:36:51.315Z,25.97
2016-09-16T11:38:02.324Z,25.91
2016-09-16T11:39:13.332Z,25.81
2016-09-16T11:40:24.350Z,25.71
2016-09-16T11:41:35.360Z,25.59
2016-09-16T11:42:46.380Z,25.34
2016-09-16T11:43:57.387Z,25.27
2016-09-16T11:45:08.401Z,25.32
2016-09-16T11:46:19.418Z,25.19
2016-09-16T11:47:30.428Z,25.2
2016-09-16T11:48:41.444Z,25.24
2016-09-16T11:49:52.461Z,25.41
2016-09-16T11:51:03.624Z,25.6
2016-09-16T11:52:14.642Z,25.91
2016-09-16T11:53:25.668Z,26.27
2016-09-16T11:54:36.688Z,26.59
2016-09-16T11:55:47.900Z,26.59
2016-09-16T11:56:58.916Z,26.63
2016-09-16T11:58:09.938Z,26.61
2016-09-16T11:59:20.945Z,26.68
2016-09-16T12:00:32.155Z,26.71
2016-09-16T12:01:43.162Z,27.01
2016-09-16T12:02:54.366Z,27.09
2016-09-16T12:04:05.377Z,27.42
2016-09-16T12:05:16.400Z,27.68
2016-09-16T12:06:27.415Z,27.91
2016-09-16T12:07:38.431Z,28.2
2016-09-16T12:08:49.441Z,28.16
2016-09-16T12:10:00.462Z,28.18
2016-09-16T12:11:11.675Z,28.05
2016-09-16T12:12:22.696Z,27.93
2016-09-16T12:13:33.720Z,27.99
2016-09-16T12:14:44.740Z,28.05
2016-09-16T12:15:55.816Z,28.06
2016-09-16T12:17:07.029Z,28.09
2016-09-16T12:18:18.042Z,28.17
2016-09-16T12:19:29.070Z,28.26
2016-09-16T12:20:40.287Z,28.31
2016-09-16T12:21:51.306Z,28.3
2016-09-16T12:23:02.341Z,28.3
2016-09-16T12:24:13.364Z,28.28
2016-09-16T12:25:24.387Z,28.11
2016-09-16T12:26:35.413Z,28.09
2016-09-16T12:27:46.431Z,28.06
2016-09-16T12:28:57.646Z,28.05
2016-09-16T12:30:08.669Z,27.9
2016-09-16T12:31:19.905Z,27.72
2016-09-16T12:32:31.142Z,27.49
2016-09-16T12:33:42.150Z,27.19
2016-09-16T12:34:53.165Z,27.01
2016-09-16T12:36:04.166Z,26.9
2016-09-16T12:37:15.380Z,26.57
2016-09-16T12:38:26.403Z,26.47
2016-09-16T12:39:37.418Z,26.31
2016-09-16T12:40:48.430Z,26.2
2016-09-16T12:41:59.650Z,26.2
2016-09-16T12:43:10.861Z,26.17
2016-09-16T12:44:21.878Z,26.03
2016-09-16T12:45:32.897Z,26.01
2016-09-16T12:46:43.915Z,25.91
2016-09-16T12:47:54.927Z,25.88
2016-09-16T12:49:06.144Z,25.81
2016-09-16T12:50:17.173Z,25.64
2016-09-16T12:51:28.185Z,25.6
2016-09-16T12:52:39.400Z,25.54
2016-09-16T12:53:50.400Z,25.42
2016-09-16T12:55:01.411Z,25.33
2016-09-16T12:56:12.623Z,25.45
2016-09-16T12:57:23.837Z,25.44
2016-09-16T12:58:34.848Z,25.38
2016-09-16T12:59:45.852Z,25.37
2016-09-16T13:00:56.871Z,25.32
2016-09-16T13:02:07.893Z,25.26
2016-09-16T13:03:18.913Z,25.2
2016-09-16T13:04:29.922Z,25.29
2016-09-16T13:05:40.936Z,25.17
2016-09-16T13:06:51.955Z,25.05
2016-09-16T13:08:03.068Z,25.08
2016-09-16T13:09:14.246Z,25.11
2016-09-16T13:10:25.464Z,25.07
2016-09-16T13:11:36.684Z,25.07
2016-09-16T13:12:47.704Z,25.09
2016-09-16T13:13:58.909Z,25.05
2016-09-16T13:15:09.921Z,25.02
2016-09-16T13:16:20.977Z,25.04
2016-09-16T13:17:31.990Z,25.11
2016-09-16T13:18:43.007Z,25.12
2016-09-16T13:19:54.012Z,25.12
2016-09-16T13:21:05.033Z,25.19
2016-09-16T13:22:16.050Z,25.23
2016-09-16T13:23:27.056Z,25.2
2016-09-16T13:24:38.067Z,25.17
2016-09-16T13:25:49.078Z,24.93
2016-09-16T13:27:00.085Z,25
2016-09-16T13:28:11.293Z,24.93
2016-09-16T13:29:22.496Z,24.89
2016-09-16T13:30:33.517Z,24.9
2016-09-16T13:31:44.523Z,24.86
2016-09-16T13:32:55.534Z,24.85
2016-09-16T13:34:06.539Z,24.82
2016-09-16T13:35:17.950Z,24.85
2016-09-16T13:36:28.956Z,24.86
2016-09-16T13:37:39.958Z,24.87
2016-09-16T13:38:50.974Z,24.89
2016-09-16T13:40:01.993Z,24.9
2016-09-16T13:41:13.208Z,24.93
2016-09-16T13:42:24.215Z,24.85
2016-09-16T13:43:35.228Z,24.86
2016-09-16T13:44:46.440Z,24.78
2016-09-16T13:45:57.449Z,24.78
2016-09-16T13:47:08.460Z,24.71
2016-09-16T13:48:19.476Z,24.8
2016-09-16T13:49:30.491Z,24.77
2016-09-16T13:50:41.500Z,24.74
2016-09-16T13:51:52.723Z,24.71
2016-09-16T13:53:03.730Z,24.74
2016-09-16T13:54:14.742Z,24.61
2016-09-16T13:55:25.752Z,24.64
2016-09-16T13:56:36.757Z,24.45
2016-09-16T13:57:47.762Z,24.52
2016-09-16T13:58:58.765Z,24.58
2016-09-16T14:00:09.785Z,24.69
2016-09-16T14:01:20.808Z,24.63
2016-09-16T14:02:32.016Z,24.66
2016-09-16T14:03:43.023Z,24.63
2016-09-16T14:04:54.030Z,24.55
2016-09-16T14:06:05.044Z,24.56
2016-09-16T14:07:16.050Z,24.48
2016-09-16T14:08:27.071Z,24.49
2016-09-16T14:09:38.083Z,24.49
2016-09-16T14:10:49.094Z,24.52
2016-09-16T14:12:00.112Z,24.46
2016-09-16T14:13:11.312Z,24.48
2016-09-16T14:14:22.328Z,24.52
2016-09-16T14:15:33.334Z,24.48
2016-09-16T14:16:44.393Z,24.51
2016-09-16T14:17:55.402Z,24.55
2016-09-16T14:19:06.432Z,24.7
2016-09-16T14:20:17.432Z,24.67
2016-09-16T14:21:28.437Z,24.66
2016-09-16T14:22:39.456Z,24.52
2016-09-16T14:23:50.879Z,24.56
2016-09-16T14:25:01.896Z,24.48
2016-09-16T14:26:12.905Z,24.37
2016-09-16T14:27:23.914Z,24.22
2016-09-16T14:28:34.920Z,24.22
2016-09-16T14:29:45.935Z,24.22
2016-09-16T14:30:56.942Z,24.21
2016-09-16T14:32:08.153Z,24.22
2016-09-16T14:33:19.160Z,24.08
2016-09-16T14:34:30.174Z,24.08
2016-09-16T14:35:41.389Z,24.07
2016-09-16T14:36:52.412Z,24.07
2016-09-16T14:38:03.618Z,23.97
2016-09-16T14:39:14.642Z,24
2016-09-16T14:40:25.660Z,23.93
2016-09-16T14:41:36.681Z,23.96
2016-09-16T14:42:47.685Z,23.9
2016-09-16T14:43:58.697Z,23.94
2016-09-16T14:45:09.902Z,23.93
2016-09-16T14:46:20.916Z,23.89
2016-09-16T14:47:31.908Z,23.84
2016-09-16T14:48:42.913Z,23.85
2016-09-16T14:49:53.933Z,23.93
2016-09-16T14:51:05.140Z,23.79
2016-09-16T14:52:16.343Z,23.75
2016-09-16T14:53:27.559Z,23.72
2016-09-16T14:54:38.566Z,23.62
2016-09-16T14:55:49.574Z,23.57
2016-09-16T14:57:00.588Z,23.62
2016-09-16T14:58:11.589Z,23.57
2016-09-16T14:59:22.596Z,23.48
2016-09-16T15:00:33.604Z,23.57
2016-09-16T15:01:44.617Z,23.4
2016-09-16T15:02:55.633Z,23.47
2016-09-16T15:04:06.636Z,23.38
2016-09-16T15:05:17.639Z,23.26
2016-09-16T15:06:28.843Z,23.24
2016-09-16T15:07:39.862Z,23.26
2016-09-16T15:08:51.078Z,23.44
2016-09-16T15:10:02.075Z,23.37
2016-09-16T15:11:13.077Z,23.47
2016-09-16T15:12:24.086Z,23.38
2016-09-16T15:13:35.100Z,23.26
2016-09-16T15:14:46.107Z,23.44
2016-09-16T15:15:57.107Z,23.32
2016-09-16T15:17:08.156Z,23.42
2016-09-16T15:18:19.168Z,23.24
2016-09-16T15:19:30.179Z,23.24